createdAt,value
2019-01-20T00:01:46.560Z,2.80
2019-01-20T00:04:30.912Z,2.70
2019-01-20T00:06:53.147Z,2.70
2019-01-20T00:09:40.924Z,2.60
2019-01-20T00:12:09.732Z,2.60
2019-01-20T00:14:39.467Z,2.60
2019-01-20T00:17:08.136Z,2.70
2019-01-20T00:19:36.734Z,2.60
2019-01-20T00:22:06.001Z,2.70
2019-01-20T00:24:34.582Z,2.70
2019-01-20T00:27:03.186Z,2.80
2019-01-20T00:29:31.619Z,2.70
2019-01-20T00:32:00.166Z,2.70
2019-01-20T00:34:28.745Z,2.70
2019-01-20T00:36:57.373Z,2.70
2019-01-20T00:39:25.900Z,2.60
2019-01-20T00:41:56.234Z,2.50
2019-01-20T00:44:25.224Z,2.50
2019-01-20T00:46:53.860Z,2.30
2019-01-20T00:49:22.432Z,2.20
2019-01-20T00:51:51.103Z,2.30
2019-01-20T00:54:19.880Z,2.40
2019-01-20T00:56:48.498Z,2.40
2019-01-20T00:59:47.797Z,2.30
2019-01-20T01:05:18.706Z,2.30
2019-01-20T01:07:47.467Z,2.20
2019-01-20T01:10:21.220Z,2.10
2019-01-20T01:13:07.609Z,2.10
2019-01-20T01:22:13.102Z,2.10
2019-01-20T01:24:43.782Z,1.90
2019-01-20T01:27:12.538Z,2.00
2019-01-20T01:29:42.734Z,1.90
2019-01-20T01:32:12.180Z,1.90
2019-01-20T01:34:40.912Z,1.90
2019-01-20T01:46:14.951Z,1.90
2019-01-20T01:48:47.976Z,1.80
2019-01-20T01:51:28.714Z,1.80
2019-01-20T01:53:57.440Z,1.70
2019-01-20T01:56:27.808Z,1.80
2019-01-20T01:58:56.620Z,1.80
2019-01-20T02:01:25.230Z,1.80
2019-01-20T02:04:01.517Z,1.90
2019-01-20T02:06:33.792Z,1.90
2019-01-20T02:09:14.762Z,1.80
2019-01-20T02:11:47.178Z,1.80
2019-01-20T02:14:18.326Z,1.90
2019-01-20T02:16:49.555Z,1.70
2019-01-20T02:19:18.132Z,1.60
2019-01-20T02:21:48.572Z,1.60
2019-01-20T02:24:25.774Z,1.70
2019-01-20T02:26:57.606Z,1.70
2019-01-20T02:30:04.464Z,1.80
2019-01-20T02:32:50.410Z,1.80
2019-01-20T02:35:20.200Z,1.90
2019-01-20T02:37:53.596Z,1.90
2019-01-20T02:40:22.081Z,1.80
2019-01-20T02:42:52.166Z,1.90
2019-01-20T02:45:20.740Z,1.90
2019-01-20T02:47:50.608Z,2.00
2019-01-20T02:50:20.031Z,2.00
2019-01-20T02:52:48.850Z,1.80
2019-01-20T02:55:17.531Z,1.80
2019-01-20T02:57:46.193Z,1.90
2019-01-20T03:00:17.743Z,1.90
2019-01-20T03:02:46.452Z,1.90
2019-01-20T03:05:23.476Z,2.00
2019-01-20T03:07:55.043Z,2.10
2019-01-20T03:13:16.729Z,2.30
2019-01-20T03:15:45.221Z,2.20
2019-01-20T03:18:16.168Z,2.20
2019-01-20T03:20:44.546Z,2.20
2019-01-20T03:23:13.203Z,2.20
2019-01-20T03:25:45.723Z,2.20
2019-01-20T03:28:19.298Z,2.10
2019-01-20T03:31:04.349Z,2.10
2019-01-20T03:33:32.511Z,2.20
2019-01-20T03:36:11.968Z,2.10
2019-01-20T03:41:54.682Z,2.20
2019-01-20T03:44:29.860Z,2.30
2019-01-20T03:47:03.440Z,2.30
2019-01-20T03:49:33.413Z,2.40
2019-01-20T03:52:02.135Z,2.40
2019-01-20T03:54:55.213Z,2.30
2019-01-20T03:58:10.288Z,2.40
2019-01-20T04:00:29.658Z,2.50
2019-01-20T04:03:01.909Z,2.40
2019-01-20T04:05:33.323Z,2.50
2019-01-20T04:11:08.750Z,2.70
2019-01-20T04:13:37.264Z,2.70
2019-01-20T04:16:05.753Z,2.80
2019-01-20T04:18:37.034Z,2.80
2019-01-20T04:21:14.631Z,2.80
2019-01-20T04:23:43.599Z,2.70
2019-01-20T04:26:13.731Z,2.70
2019-01-20T04:29:02.700Z,2.80
2019-01-20T04:31:43.722Z,2.80
2019-01-20T04:34:15.813Z,2.90
2019-01-20T04:36:44.501Z,2.80
2019-01-20T04:39:13.152Z,2.80
2019-01-20T04:41:41.995Z,2.90
2019-01-20T04:44:13.980Z,2.90
2019-01-20T04:49:51.088Z,2.90
2019-01-20T04:52:30.172Z,3.00
2019-01-20T05:01:27.513Z,2.90
2019-01-20T05:03:56.362Z,2.80
2019-01-20T05:06:26.831Z,2.80
2019-01-20T05:08:57.493Z,2.80
2019-01-20T05:11:26.444Z,2.90
2019-01-20T05:14:10.123Z,2.90
2019-01-20T05:16:50.702Z,2.90
2019-01-20T05:20:13.402Z,2.80
2019-01-20T05:22:23.470Z,2.80
2019-01-20T05:24:39.640Z,2.70
2019-01-20T05:27:08.264Z,2.60
2019-01-20T05:29:37.153Z,2.50
2019-01-20T05:32:12.925Z,2.40
2019-01-20T05:34:58.181Z,2.30
2019-01-20T05:37:28.726Z,2.20
2019-01-20T05:40:05.592Z,2.10
2019-01-20T05:42:34.406Z,2.10
2019-01-20T05:45:09.628Z,2.00
2019-01-20T05:48:19.294Z,1.90
2019-01-20T05:53:54.037Z,2.00
2019-01-20T06:46:34.371Z,2.00
2019-01-20T06:49:16.099Z,1.80
2019-01-20T06:52:18.267Z,1.80
2019-01-20T06:54:51.082Z,1.80
2019-01-20T06:57:34.941Z,1.60
2019-01-20T07:06:18.143Z,1.50
2019-01-20T07:08:44.413Z,1.50
2019-01-20T07:11:14.485Z,1.40
2019-01-20T07:13:44.981Z,1.40
2019-01-20T07:16:36.121Z,1.40
2019-01-20T07:19:04.123Z,1.40
2019-01-20T07:33:57.533Z,1.20
2019-01-20T08:02:11.238Z,1.80
2019-01-20T08:07:19.197Z,1.50
2019-01-20T08:09:47.938Z,1.40
2019-01-20T08:12:23.362Z,1.50
2019-01-20T08:14:47.263Z,1.40
2019-01-20T08:17:34.912Z,1.50
2019-01-20T08:20:41.594Z,1.50
2019-01-20T08:23:11.813Z,1.40
2019-01-20T08:26:16.497Z,1.20
2019-01-20T08:28:38.338Z,1.30
2019-01-20T08:31:11.577Z,1.40
2019-01-20T08:33:52.197Z,1.40
2019-01-20T08:36:39.060Z,1.30
2019-01-20T08:39:08.369Z,1.30
2019-01-20T08:41:37.469Z,1.40
2019-01-20T08:44:06.208Z,1.40
2019-01-20T08:46:40.702Z,1.50
2019-01-20T08:49:09.291Z,1.50
2019-01-20T08:51:39.919Z,1.50
2019-01-20T08:54:08.828Z,1.50
2019-01-20T08:56:37.549Z,1.60
2019-01-20T08:59:10.129Z,1.60
2019-01-20T09:01:38.878Z,1.70
2019-01-20T09:04:07.379Z,1.80
2019-01-20T09:06:36.397Z,2.00
2019-01-20T09:09:12.918Z,2.10
2019-01-20T09:11:46.473Z,2.10
2019-01-20T09:14:19.567Z,2.10
2019-01-20T09:17:08.644Z,2.00
2019-01-20T09:19:24.836Z,2.00
2019-01-20T09:21:54.494Z,2.00
2019-01-20T09:24:24.967Z,1.80
2019-01-20T09:26:53.609Z,2.10
2019-01-20T09:29:22.319Z,2.00
2019-01-20T09:31:51.172Z,2.20
2019-01-20T09:34:19.877Z,2.10
2019-01-20T09:36:48.447Z,2.30
2019-01-20T09:39:27.381Z,2.60
2019-01-20T09:41:56.092Z,2.70
2019-01-20T09:44:24.746Z,2.90
2019-01-20T09:47:00.445Z,2.90
2019-01-20T09:49:34.975Z,2.90
2019-01-20T09:52:11.567Z,3.00
2019-01-20T09:54:41.863Z,3.10
2019-01-20T09:57:10.853Z,3.30
2019-01-20T09:59:39.599Z,3.60
2019-01-20T10:02:09.479Z,3.90
2019-01-20T10:04:37.997Z,4.00
2019-01-20T10:07:06.664Z,4.30
2019-01-20T10:09:35.305Z,4.50
2019-01-20T10:12:03.941Z,4.50
2019-01-20T10:14:35.389Z,4.80
2019-01-20T10:17:04.201Z,4.90
2019-01-20T10:19:42.519Z,5.20
2019-01-20T10:22:17.045Z,5.30
2019-01-20T10:24:47.810Z,5.40
2019-01-20T10:27:16.773Z,5.80
2019-01-20T10:29:46.705Z,5.80
2019-01-20T10:32:15.251Z,6.00
2019-01-20T10:34:43.891Z,6.20
2019-01-20T10:37:12.580Z,6.40
2019-01-20T10:39:52.707Z,6.60
2019-01-20T10:42:21.543Z,6.60
2019-01-20T10:44:53.027Z,6.80
2019-01-20T10:47:21.546Z,6.40
2019-01-20T10:49:50.127Z,6.50
2019-01-20T10:52:18.663Z,6.70
2019-01-20T10:54:47.215Z,6.70
2019-01-20T10:57:17.417Z,7.00
2019-01-20T10:59:45.881Z,7.10
2019-01-20T11:02:14.257Z,7.20
2019-01-20T11:04:43.570Z,7.50
2019-01-20T11:07:12.527Z,7.60
2019-01-20T11:09:51.962Z,7.40
2019-01-20T11:12:20.707Z,7.40
2019-01-20T11:15:01.380Z,7.80
2019-01-20T11:17:33.622Z,7.70
2019-01-20T11:20:02.879Z,7.90
2019-01-20T11:22:32.510Z,8.00
2019-01-20T11:25:00.930Z,8.10
2019-01-20T11:27:29.317Z,8.00
2019-01-20T11:30:00.048Z,8.10
2019-01-20T11:32:28.710Z,8.00
2019-01-20T11:34:57.239Z,8.10
2019-01-20T11:37:25.731Z,8.20
2019-01-20T11:39:54.236Z,8.60
2019-01-20T11:42:22.747Z,9.10
2019-01-20T11:44:51.147Z,9.00
2019-01-20T11:47:19.614Z,9.00
2019-01-20T11:49:48.099Z,9.10
2019-01-20T11:52:16.531Z,9.20
2019-01-20T11:54:44.956Z,9.10
2019-01-20T11:57:18.672Z,9.10
2019-01-20T11:59:55.932Z,9.20
2019-01-20T12:02:24.256Z,9.40
2019-01-20T12:04:52.698Z,9.70
2019-01-20T12:07:21.146Z,9.60
2019-01-20T12:09:50.242Z,9.80
2019-01-20T12:12:18.654Z,9.80
2019-01-20T12:14:47.721Z,10.30
2019-01-20T12:17:19.125Z,10.30
2019-01-20T12:20:23.503Z,10.40
2019-01-20T12:23:10.246Z,10.40
2019-01-20T12:25:30.838Z,10.80
2019-01-20T12:54:59.729Z,11.50
2019-01-20T12:57:28.333Z,11.40
2019-01-20T12:59:57.369Z,11.60
2019-01-20T13:02:26.321Z,11.80
2019-01-20T13:05:01.808Z,11.40
2019-01-20T13:07:51.025Z,11.30
2019-01-20T13:13:23.311Z,11.60
2019-01-20T13:15:51.829Z,11.40
2019-01-20T13:18:29.058Z,11.00
2019-01-20T13:21:08.119Z,11.30
2019-01-20T13:23:45.834Z,11.30
2019-01-20T13:26:17.545Z,11.20
2019-01-20T13:29:09.027Z,11.30
2019-01-20T13:32:18.698Z,10.60
2019-01-20T13:35:03.700Z,10.70
2019-01-20T13:37:53.510Z,10.90
2019-01-20T13:40:39.539Z,11.30
2019-01-20T13:56:42.455Z,11.10
2019-01-20T13:59:11.299Z,11.70
2019-01-20T14:01:40.133Z,11.10
2019-01-20T14:04:10.482Z,11.30
2019-01-20T14:06:39.046Z,11.60
2019-01-20T14:09:08.000Z,11.30
2019-01-20T14:11:37.118Z,11.60
2019-01-20T14:14:05.942Z,11.70
2019-01-20T14:16:34.646Z,11.90
2019-01-20T14:19:03.371Z,11.20
2019-01-20T14:21:34.273Z,11.40
2019-01-20T14:24:04.794Z,11.50
2019-01-20T14:26:53.670Z,11.30
2019-01-20T14:29:24.930Z,11.30
2019-01-20T14:31:53.875Z,11.50
2019-01-20T14:34:25.265Z,11.60
2019-01-20T14:37:01.596Z,11.30
2019-01-20T14:39:28.664Z,11.60
2019-01-20T14:42:05.290Z,11.30
2019-01-20T14:44:35.855Z,11.10
2019-01-20T14:47:12.619Z,11.20
2019-01-20T14:50:01.317Z,11.30
2019-01-20T14:52:26.078Z,11.40
2019-01-20T14:54:59.600Z,11.50
2019-01-20T14:57:28.986Z,11.30
2019-01-20T15:00:01.653Z,11.50
2019-01-20T15:02:50.024Z,11.40
2019-01-20T15:05:18.743Z,11.20
2019-01-20T15:07:47.743Z,10.70
2019-01-20T15:10:17.251Z,10.40
2019-01-20T15:12:50.431Z,10.20
2019-01-20T15:15:24.180Z,9.60
2019-01-20T15:17:55.782Z,9.50
2019-01-20T15:20:24.569Z,9.50
2019-01-20T15:22:53.080Z,9.00
2019-01-20T15:25:21.688Z,8.50
2019-01-20T15:27:50.601Z,8.30
2019-01-20T15:30:27.546Z,8.20
2019-01-20T15:32:56.761Z,7.90
2019-01-20T15:35:25.354Z,7.80
2019-01-20T15:37:54.258Z,7.60
2019-01-20T15:40:28.009Z,7.60
2019-01-20T15:42:59.454Z,7.20
2019-01-20T15:45:31.715Z,6.90
2019-01-20T15:48:02.033Z,6.90
2019-01-20T15:50:42.322Z,6.70
2019-01-20T15:53:11.180Z,6.30
2019-01-20T15:55:44.689Z,6.00
2019-01-20T15:58:23.782Z,6.00
2019-01-20T16:00:50.929Z,5.90
2019-01-20T16:03:22.032Z,5.60
2019-01-20T16:06:16.322Z,5.40
2019-01-20T16:08:49.626Z,5.50
2019-01-20T16:11:32.165Z,5.40
2019-01-20T16:14:05.365Z,5.50
2019-01-20T16:16:35.920Z,5.50
2019-01-20T16:19:05.943Z,5.50
2019-01-20T16:21:34.660Z,5.50
2019-01-20T16:24:03.489Z,5.30
2019-01-20T16:26:33.769Z,5.00
2019-01-20T16:29:04.036Z,5.00
2019-01-20T16:31:39.944Z,5.00
2019-01-20T16:34:07.630Z,4.90
2019-01-20T16:36:37.883Z,4.90
2019-01-20T16:39:10.022Z,5.00
2019-01-20T16:41:39.266Z,5.00
2019-01-20T16:44:07.950Z,5.10
2019-01-20T16:46:38.616Z,5.10
2019-01-20T16:49:09.086Z,5.20
2019-01-20T16:51:41.304Z,5.10
2019-01-20T16:54:10.010Z,4.90
2019-01-20T16:56:40.489Z,4.80
2019-01-20T16:59:08.980Z,4.80
2019-01-20T17:01:37.582Z,4.90
2019-01-20T17:04:06.279Z,4.90
2019-01-20T17:06:34.824Z,4.90
2019-01-20T17:09:03.674Z,4.80
2019-01-20T17:11:32.378Z,4.90
2019-01-20T17:14:00.879Z,4.80
2019-01-20T17:16:29.637Z,4.80
2019-01-20T17:18:58.549Z,4.70
2019-01-20T17:21:28.696Z,4.70
2019-01-20T17:23:57.176Z,4.60
2019-01-20T17:26:25.726Z,4.60
2019-01-20T17:28:54.262Z,4.70
2019-01-20T17:31:22.788Z,4.40
2019-01-20T17:33:51.452Z,4.30
2019-01-20T17:36:20.081Z,4.30
2019-01-20T17:38:48.534Z,4.20
2019-01-20T17:41:17.288Z,4.20
2019-01-20T17:43:46.858Z,4.20
2019-01-20T17:46:15.521Z,4.20
2019-01-20T17:48:44.085Z,4.00
2019-01-20T17:51:12.681Z,4.00
2019-01-20T17:53:41.318Z,4.10
2019-01-20T17:56:09.939Z,4.00
2019-01-20T17:58:38.335Z,4.00
2019-01-20T18:01:07.339Z,3.90
2019-01-20T18:03:36.191Z,4.00
2019-01-20T18:06:06.255Z,4.00
2019-01-20T18:08:36.863Z,3.80
2019-01-20T18:11:07.096Z,3.70
2019-01-20T18:13:37.040Z,3.80
2019-01-20T18:16:09.256Z,4.00
2019-01-20T18:18:40.404Z,4.00
2019-01-20T18:21:13.950Z,4.10
2019-01-20T18:23:45.153Z,4.20
2019-01-20T18:26:13.854Z,4.20
2019-01-20T18:28:45.075Z,4.30
2019-01-20T18:31:18.028Z,4.10
2019-01-20T18:33:47.114Z,4.20
2019-01-20T18:36:18.682Z,4.00
2019-01-20T18:38:51.899Z,3.90
2019-01-20T18:41:22.043Z,3.80
2019-01-20T18:43:50.673Z,3.80
2019-01-20T18:46:21.455Z,3.70
2019-01-20T18:48:51.880Z,3.70
2019-01-20T18:51:20.107Z,3.90
2019-01-20T18:53:48.630Z,3.70
2019-01-20T18:56:18.647Z,4.00
2019-01-20T18:58:51.170Z,3.90
2019-01-20T19:01:19.697Z,3.90
2019-01-20T19:03:49.100Z,3.80
2019-01-20T19:06:17.662Z,4.00
2019-01-20T19:08:46.434Z,4.00
2019-01-20T19:11:15.124Z,4.10
2019-01-20T19:13:43.953Z,4.00
2019-01-20T19:16:12.592Z,3.90
2019-01-20T19:18:42.805Z,3.80
2019-01-20T19:21:11.974Z,3.90
2019-01-20T19:23:40.459Z,3.90
2019-01-20T19:26:09.044Z,4.00
2019-01-20T19:28:43.928Z,3.90
2019-01-20T19:31:16.988Z,3.90
2019-01-20T19:33:44.776Z,3.80
2019-01-20T19:36:13.490Z,3.80
2019-01-20T19:38:45.713Z,3.70
2019-01-20T19:41:15.079Z,3.70
2019-01-20T19:43:45.886Z,3.70
2019-01-20T19:46:16.547Z,3.70
2019-01-20T19:48:46.186Z,3.70
2019-01-20T19:51:17.840Z,3.80
2019-01-20T19:53:48.176Z,3.90
2019-01-20T19:56:17.075Z,3.90
2019-01-20T19:58:46.806Z,3.80
2019-01-20T20:01:30.778Z,3.70
2019-01-20T20:03:56.728Z,3.60
2019-01-20T20:06:30.259Z,3.70
2019-01-20T20:08:59.308Z,3.60
2019-01-20T20:11:29.556Z,3.70
2019-01-20T20:13:59.889Z,3.70
2019-01-20T20:16:41.935Z,3.50
2019-01-20T20:19:02.399Z,3.50
2019-01-20T20:21:35.291Z,3.40
2019-01-20T20:24:07.577Z,3.30
2019-01-20T20:26:35.636Z,3.40
2019-01-20T20:29:08.372Z,3.40
2019-01-20T20:31:37.168Z,3.30
2019-01-20T20:34:07.598Z,3.30
2019-01-20T20:36:43.697Z,3.30
2019-01-20T20:39:18.682Z,3.20
2019-01-20T20:41:53.074Z,3.10
2019-01-20T20:47:04.314Z,3.00
2019-01-20T20:49:39.450Z,2.90
2019-01-20T20:52:10.048Z,3.00
2019-01-20T20:54:40.274Z,2.90
2019-01-20T20:57:16.262Z,2.90
2019-01-20T20:59:49.007Z,2.90
2019-01-20T21:02:31.067Z,2.80
2019-01-20T21:05:02.446Z,2.80
2019-01-20T21:07:33.396Z,2.80
2019-01-20T21:10:17.386Z,2.90
2019-01-20T21:12:40.864Z,2.80
2019-01-20T21:15:14.737Z,2.60
2019-01-20T21:20:41.527Z,2.80
2019-01-20T21:25:49.007Z,2.80
2019-01-20T21:28:17.858Z,2.70
2019-01-20T21:30:46.608Z,2.60
2019-01-20T21:33:20.708Z,2.40
2019-01-20T21:38:27.937Z,2.20
2019-01-20T21:41:08.852Z,2.30
2019-01-20T21:43:36.774Z,2.50
2019-01-20T21:48:54.105Z,2.80
2019-01-20T22:00:46.301Z,2.80
2019-01-20T22:03:32.296Z,2.80
2019-01-20T22:06:30.654Z,2.70
2019-01-20T22:09:18.202Z,2.50
2019-01-20T22:11:57.220Z,2.50
2019-01-20T22:14:32.804Z,2.30
2019-01-20T22:17:06.818Z,2.40
2019-01-20T22:19:38.878Z,2.40
2019-01-20T22:22:27.147Z,2.50
2019-01-20T22:30:49.039Z,2.30
2019-01-20T22:33:14.623Z,2.20
2019-01-20T22:35:51.065Z,2.40
2019-01-20T22:38:26.915Z,2.40
2019-01-20T22:47:03.465Z,2.30
2019-01-20T22:50:09.246Z,2.40
2019-01-20T23:05:21.637Z,2.30
2019-01-20T23:07:52.977Z,2.00
2019-01-20T23:10:28.941Z,2.10
2019-01-20T23:13:12.595Z,2.20
2019-01-20T23:15:41.553Z,2.00
2019-01-20T23:18:10.365Z,2.10
2019-01-20T23:20:45.412Z,2.20
2019-01-20T23:23:13.935Z,2.00
2019-01-20T23:25:42.548Z,1.90
2019-01-20T23:28:24.931Z,2.00
2019-01-20T23:31:12.189Z,2.10
2019-01-20T23:34:02.512Z,1.90
2019-01-20T23:42:22.537Z,2.00
2019-01-20T23:45:12.331Z,2.00
2019-01-20T23:47:52.283Z,2.00
2019-01-20T23:55:41.272Z,2.10
2019-01-20T23:58:10.325Z,2.10
